createdAt,value
2018-04-29T00:00:03.929Z,0
2018-04-29T00:01:04.503Z,0
2018-04-29T00:02:05.058Z,0
2018-04-29T00:03:05.614Z,0
2018-04-29T00:04:06.149Z,0
2018-04-29T00:05:06.690Z,0
2018-04-29T00:06:07.235Z,0
2018-04-29T00:07:07.782Z,0
2018-04-29T00:08:08.330Z,0
2018-04-29T00:09:08.866Z,0
2018-04-29T00:10:09.413Z,0
2018-04-29T00:11:09.964Z,0
2018-04-29T00:12:10.504Z,0
2018-04-29T00:13:11.048Z,0
2018-04-29T00:14:11.595Z,0
2018-04-29T00:15:12.135Z,0
2018-04-29T00:16:12.684Z,0
2018-04-29T00:17:13.228Z,0
2018-04-29T00:18:13.766Z,0
2018-04-29T00:19:14.308Z,0
2018-04-29T00:20:14.850Z,0
2018-04-29T00:21:15.395Z,0
2018-04-29T00:22:15.942Z,0
2018-04-29T00:23:16.478Z,0
2018-04-29T00:24:17.020Z,0
2018-04-29T00:25:17.561Z,0
2018-04-29T00:26:18.112Z,0
2018-04-29T00:27:18.654Z,0
2018-04-29T00:28:19.198Z,0
2018-04-29T00:29:19.739Z,0
2018-04-29T00:30:20.283Z,0
2018-04-29T00:31:20.825Z,0
2018-04-29T00:32:21.371Z,0
2018-04-29T00:33:21.913Z,0
2018-04-29T00:34:22.457Z,0
2018-04-29T00:35:22.995Z,0
2018-04-29T00:36:23.537Z,0
2018-04-29T00:37:24.082Z,0
2018-04-29T00:38:24.628Z,0
2018-04-29T00:39:25.173Z,0
2018-04-29T00:40:25.711Z,0
2018-04-29T00:41:26.256Z,0
2018-04-29T00:42:26.810Z,0
2018-04-29T00:43:27.341Z,0
2018-04-29T00:44:27.889Z,0
2018-04-29T00:45:28.438Z,0
2018-04-29T00:46:28.982Z,0
2018-04-29T00:47:29.525Z,0
2018-04-29T00:48:30.067Z,0
2018-04-29T00:49:30.607Z,0
2018-04-29T00:50:31.153Z,0
2018-04-29T00:51:31.694Z,0
2018-04-29T00:52:32.236Z,0
2018-04-29T00:53:32.781Z,0
2018-04-29T00:54:33.320Z,0
2018-04-29T00:55:33.859Z,0
2018-04-29T00:56:34.403Z,0
2018-04-29T00:57:34.942Z,0
2018-04-29T00:58:35.485Z,0
2018-04-29T00:59:36.030Z,0
2018-04-29T01:00:36.571Z,0
2018-04-29T01:01:37.114Z,0
2018-04-29T01:02:37.659Z,0
2018-04-29T01:03:38.206Z,0
2018-04-29T01:04:38.750Z,0
2018-04-29T01:05:39.297Z,0
2018-04-29T01:06:39.841Z,0
2018-04-29T01:07:40.386Z,0
2018-04-29T01:08:40.932Z,0
2018-04-29T01:09:41.476Z,0
2018-04-29T01:10:42.020Z,0
2018-04-29T01:11:42.566Z,0
2018-04-29T01:12:43.114Z,0
2018-04-29T01:13:43.657Z,0
2018-04-29T01:14:44.206Z,0
2018-04-29T01:15:44.750Z,0
2018-04-29T01:16:45.290Z,0
2018-04-29T01:17:45.834Z,0
2018-04-29T01:18:46.374Z,0
2018-04-29T01:19:46.917Z,0
2018-04-29T01:20:47.463Z,0
2018-04-29T01:21:48.010Z,0
2018-04-29T01:22:48.558Z,0
2018-04-29T01:23:49.095Z,0
2018-04-29T01:24:49.634Z,0
2018-04-29T01:25:50.180Z,0
2018-04-29T01:26:50.726Z,0
2018-04-29T01:27:51.265Z,0
2018-04-29T01:28:51.808Z,0
2018-04-29T01:29:52.352Z,0
2018-04-29T01:30:52.896Z,0
2018-04-29T01:31:53.442Z,0
2018-04-29T01:32:53.983Z,0
2018-04-29T01:33:54.527Z,0
2018-04-29T01:34:55.070Z,0
2018-04-29T01:35:55.619Z,0
2018-04-29T01:36:56.187Z,0
2018-04-29T01:37:56.697Z,0
2018-04-29T01:38:57.235Z,0
2018-04-29T01:39:57.781Z,0
2018-04-29T01:40:58.327Z,0
2018-04-29T01:41:58.870Z,0
2018-04-29T01:42:59.417Z,0
2018-04-29T01:43:59.961Z,0
2018-04-29T01:45:00.506Z,0
2018-04-29T01:46:01.055Z,0
2018-04-29T01:47:01.596Z,0
2018-04-29T01:48:02.134Z,0
2018-04-29T01:49:02.674Z,0
2018-04-29T01:50:03.219Z,0
2018-04-29T01:51:03.762Z,0
2018-04-29T01:52:04.313Z,0
2018-04-29T01:53:04.852Z,0
2018-04-29T01:54:05.395Z,0
2018-04-29T01:55:05.942Z,0
2018-04-29T01:56:06.481Z,0
2018-04-29T01:57:07.025Z,0
2018-04-29T01:58:07.569Z,0
2018-04-29T01:59:08.111Z,0
2018-04-29T02:00:08.657Z,0
2018-04-29T02:01:09.201Z,0
2018-04-29T02:02:09.746Z,0
2018-04-29T02:03:10.290Z,0
2018-04-29T02:04:10.837Z,0
2018-04-29T02:05:11.377Z,0
2018-04-29T02:06:11.920Z,0
2018-04-29T02:07:12.459Z,0
2018-04-29T02:08:13.003Z,0
2018-04-29T02:09:13.544Z,0
2018-04-29T02:10:14.084Z,0
2018-04-29T02:11:14.623Z,0
2018-04-29T02:12:15.170Z,0
2018-04-29T02:13:15.712Z,0
2018-04-29T02:14:16.259Z,0
2018-04-29T02:15:16.805Z,0
2018-04-29T02:16:17.354Z,0
2018-04-29T02:17:17.891Z,0
2018-04-29T02:18:18.430Z,0
2018-04-29T02:19:18.972Z,0
2018-04-29T02:20:19.513Z,0
2018-04-29T02:21:20.055Z,0
2018-04-29T02:22:20.594Z,0
2018-04-29T02:23:21.143Z,0
2018-04-29T02:24:21.684Z,0
2018-04-29T02:25:22.228Z,0
2018-04-29T02:26:22.766Z,0
2018-04-29T02:27:23.310Z,0
2018-04-29T02:28:23.856Z,0
2018-04-29T02:29:24.400Z,0
2018-04-29T02:30:24.943Z,0
2018-04-29T02:31:25.508Z,0
2018-04-29T02:32:26.025Z,0
2018-04-29T02:33:26.564Z,0
2018-04-29T02:34:27.116Z,0
2018-04-29T02:35:27.661Z,0
2018-04-29T02:36:28.202Z,0
2018-04-29T02:37:28.749Z,0
2018-04-29T02:38:29.295Z,0
2018-04-29T02:39:29.842Z,0
2018-04-29T02:40:30.385Z,0
2018-04-29T02:41:30.929Z,0
2018-04-29T02:42:31.469Z,0
2018-04-29T02:43:32.012Z,0
2018-04-29T02:44:32.555Z,0
2018-04-29T02:45:33.106Z,0
2018-04-29T02:46:33.646Z,0
2018-04-29T02:47:34.193Z,0
2018-04-29T02:48:34.727Z,0
2018-04-29T02:49:35.275Z,0
2018-04-29T02:50:35.817Z,0
2018-04-29T02:51:36.357Z,0
2018-04-29T02:52:36.904Z,0
2018-04-29T02:53:37.451Z,0
2018-04-29T02:54:37.992Z,0
2018-04-29T02:55:38.537Z,0
2018-04-29T02:56:39.078Z,0
2018-04-29T02:57:39.618Z,0
2018-04-29T02:58:40.160Z,0
2018-04-29T02:59:40.704Z,0
2018-04-29T03:00:41.251Z,0
2018-04-29T03:01:41.795Z,0
2018-04-29T03:02:42.337Z,0
2018-04-29T03:03:42.883Z,0
2018-04-29T03:04:43.473Z,0
2018-04-29T03:05:43.967Z,0
2018-04-29T03:06:44.515Z,0
2018-04-29T03:07:45.056Z,0
2018-04-29T03:08:45.598Z,0
2018-04-29T03:09:46.136Z,0
2018-04-29T03:10:46.676Z,0
2018-04-29T03:11:47.230Z,0
2018-04-29T03:12:47.764Z,0
2018-04-29T03:13:48.347Z,0
2018-04-29T03:14:48.857Z,0
2018-04-29T03:15:49.400Z,0
2018-04-29T03:16:49.946Z,0
2018-04-29T03:17:50.488Z,0
2018-04-29T03:18:51.038Z,0
2018-04-29T03:19:51.574Z,0
2018-04-29T03:20:52.119Z,0
2018-04-29T03:21:52.660Z,0
2018-04-29T03:22:53.204Z,0
2018-04-29T03:23:53.744Z,0
2018-04-29T03:24:54.293Z,0
2018-04-29T03:25:54.837Z,0
2018-04-29T03:26:55.378Z,0
2018-04-29T03:27:55.921Z,0
2018-04-29T03:28:56.464Z,0
2018-04-29T03:29:57.009Z,0
2018-04-29T03:30:57.546Z,0
2018-04-29T03:31:58.093Z,0
2018-04-29T03:32:58.636Z,0
2018-04-29T03:33:59.180Z,0
2018-04-29T03:34:59.719Z,0
2018-04-29T03:36:00.265Z,0
2018-04-29T03:37:00.810Z,0
2018-04-29T03:38:01.357Z,0
2018-04-29T03:39:01.903Z,0
2018-04-29T03:40:02.448Z,0
2018-04-29T03:41:02.991Z,0
2018-04-29T03:42:03.537Z,0
2018-04-29T03:43:04.080Z,0
2018-04-29T03:44:04.626Z,0
2018-04-29T03:45:05.171Z,0
2018-04-29T03:46:05.716Z,0
2018-04-29T03:47:06.262Z,0
2018-04-29T03:48:06.799Z,0
2018-04-29T03:49:07.347Z,0
2018-04-29T03:50:07.888Z,0
2018-04-29T03:51:08.437Z,0
2018-04-29T03:52:08.984Z,0
2018-04-29T03:53:09.531Z,0
2018-04-29T03:54:10.070Z,0
2018-04-29T03:55:10.613Z,0
2018-04-29T03:56:11.158Z,0
2018-04-29T03:57:11.703Z,0
2018-04-29T03:58:12.242Z,0
2018-04-29T03:59:12.782Z,0
2018-04-29T04:00:13.329Z,0
2018-04-29T04:01:13.879Z,0
2018-04-29T04:02:14.421Z,0
2018-04-29T04:03:14.959Z,0
2018-04-29T04:04:15.501Z,5
2018-04-29T04:05:16.051Z,5
2018-04-29T04:06:16.594Z,5
2018-04-29T04:07:17.140Z,5
2018-04-29T04:08:17.683Z,5
2018-04-29T04:09:18.237Z,5
2018-04-29T04:10:18.774Z,10
2018-04-29T04:11:19.322Z,10
2018-04-29T04:12:19.869Z,15
2018-04-29T04:13:20.415Z,15
2018-04-29T04:14:20.961Z,20
2018-04-29T04:15:21.511Z,20
2018-04-29T04:16:22.054Z,20
2018-04-29T04:17:22.598Z,25
2018-04-29T04:18:23.144Z,25
2018-04-29T04:19:23.693Z,25
2018-04-29T04:20:24.241Z,25
2018-04-29T04:21:24.788Z,25
2018-04-29T04:22:25.333Z,25
2018-04-29T04:23:25.877Z,30
2018-04-29T04:24:26.425Z,30
2018-04-29T04:25:26.972Z,30
2018-04-29T04:26:27.517Z,35
2018-04-29T04:27:28.066Z,35
2018-04-29T04:28:28.615Z,35
2018-04-29T04:29:29.160Z,40
2018-04-29T04:30:29.707Z,40
2018-04-29T04:31:30.254Z,40
2018-04-29T04:32:30.801Z,45
2018-04-29T04:33:31.352Z,45
2018-04-29T04:34:31.902Z,45
2018-04-29T04:35:32.447Z,45
2018-04-29T04:36:32.996Z,45
2018-04-29T04:37:33.545Z,45
2018-04-29T04:38:34.090Z,50
2018-04-29T04:39:34.638Z,50
2018-04-29T04:40:35.185Z,50
2018-04-29T04:41:35.728Z,55
2018-04-29T04:42:36.285Z,55
2018-04-29T04:43:36.827Z,55
2018-04-29T04:44:37.380Z,55
2018-04-29T04:45:37.950Z,60
2018-04-29T04:46:38.474Z,65
2018-04-29T04:47:39.021Z,60
2018-04-29T04:48:39.566Z,65
2018-04-29T04:49:40.117Z,65
2018-04-29T04:50:40.743Z,65
2018-04-29T04:51:41.210Z,70
2018-04-29T04:52:41.759Z,70
2018-04-29T04:53:42.308Z,65
2018-04-29T04:54:42.851Z,65
2018-04-29T04:55:43.402Z,65
2018-04-29T04:56:43.949Z,60
2018-04-29T04:57:44.494Z,55
2018-04-29T04:58:45.044Z,50
2018-04-29T04:59:45.589Z,45
2018-04-29T05:00:46.145Z,40
2018-04-29T05:01:46.699Z,35
2018-04-29T05:02:47.247Z,35
2018-04-29T05:03:47.800Z,35
2018-04-29T05:04:48.350Z,35
2018-04-29T05:05:48.902Z,35
2018-04-29T05:06:49.445Z,35
2018-04-29T05:07:49.994Z,35
2018-04-29T05:08:50.543Z,35
2018-04-29T05:09:51.089Z,35
2018-04-29T05:10:51.639Z,40
2018-04-29T05:11:52.190Z,40
2018-04-29T05:12:52.736Z,45
2018-04-29T05:13:53.290Z,45
2018-04-29T05:14:53.839Z,50
2018-04-29T05:15:54.385Z,50
2018-04-29T05:16:54.935Z,50
2018-04-29T05:17:55.485Z,60
2018-04-29T05:18:56.037Z,70
2018-04-29T05:19:56.585Z,85
2018-04-29T05:20:57.135Z,100
2018-04-29T05:21:57.682Z,105
2018-04-29T05:22:58.226Z,100
2018-04-29T05:23:58.778Z,100
2018-04-29T05:24:59.328Z,105
2018-04-29T05:25:59.875Z,115
2018-04-29T05:27:00.425Z,125
2018-04-29T05:28:00.980Z,135
2018-04-29T05:29:01.532Z,135
2018-04-29T05:30:02.084Z,140
2018-04-29T05:31:02.630Z,130
2018-04-29T05:32:03.184Z,130
2018-04-29T05:33:03.738Z,135
2018-04-29T05:34:04.284Z,135
2018-04-29T05:35:04.837Z,140
2018-04-29T05:36:05.391Z,135
2018-04-29T05:37:05.940Z,130
2018-04-29T05:38:06.491Z,120
2018-04-29T05:39:07.041Z,110
2018-04-29T05:40:07.593Z,100
2018-04-29T05:41:08.141Z,85
2018-04-29T05:42:08.686Z,75
2018-04-29T05:43:09.234Z,70
2018-04-29T05:44:09.787Z,60
2018-04-29T05:45:10.341Z,55
2018-04-29T05:46:10.893Z,55
2018-04-29T05:47:11.451Z,55
2018-04-29T05:48:11.997Z,60
2018-04-29T05:49:12.540Z,75
2018-04-29T05:50:13.087Z,95
2018-04-29T05:51:13.640Z,110
2018-04-29T05:52:14.191Z,115
2018-04-29T05:53:14.741Z,120
2018-04-29T05:54:15.295Z,135
2018-04-29T05:55:15.847Z,155
2018-04-29T05:56:16.400Z,165
2018-04-29T05:57:16.950Z,165
2018-04-29T05:58:17.498Z,150
2018-04-29T05:59:18.052Z,140
2018-04-29T06:00:18.609Z,135
2018-04-29T06:01:19.155Z,135
2018-04-29T06:02:19.705Z,135
2018-04-29T06:03:20.254Z,125
2018-04-29T06:04:20.807Z,115
2018-04-29T06:05:21.354Z,110
2018-04-29T06:06:21.935Z,110
2018-04-29T06:07:22.454Z,115
2018-04-29T06:08:23.003Z,110
2018-04-29T06:09:23.556Z,105
2018-04-29T06:10:24.102Z,100
2018-04-29T06:11:24.660Z,100
2018-04-29T06:12:25.198Z,95
2018-04-29T06:13:25.748Z,85
2018-04-29T06:14:26.293Z,75
2018-04-29T06:15:26.846Z,55
2018-04-29T06:16:27.397Z,45
2018-04-29T06:17:27.947Z,45
2018-04-29T06:18:28.497Z,50
2018-04-29T06:19:29.041Z,55
2018-04-29T06:20:29.608Z,60
2018-04-29T06:21:30.137Z,65
2018-04-29T06:22:30.687Z,70
2018-04-29T06:23:31.240Z,75
2018-04-29T06:24:31.793Z,80
2018-04-29T06:25:32.344Z,90
2018-04-29T06:26:32.889Z,90
2018-04-29T06:27:33.435Z,95
2018-04-29T06:28:33.980Z,110
2018-04-29T06:29:34.530Z,130
2018-04-29T06:30:35.076Z,150
2018-04-29T06:31:35.626Z,170
2018-04-29T06:32:36.173Z,190
2018-04-29T06:33:36.726Z,200
2018-04-29T06:34:37.311Z,210
2018-04-29T06:35:37.827Z,225
2018-04-29T06:36:38.384Z,265
2018-04-29T06:37:38.938Z,310
2018-04-29T06:38:39.487Z,320
2018-04-29T06:39:40.039Z,320
2018-04-29T06:40:40.586Z,325
2018-04-29T06:41:41.139Z,355
2018-04-29T06:42:41.697Z,395
2018-04-29T06:43:42.246Z,410
2018-04-29T06:44:42.798Z,415
2018-04-29T06:45:43.355Z,410
2018-04-29T06:46:43.905Z,380
2018-04-29T06:47:44.460Z,315
2018-04-29T06:48:45.012Z,255
2018-04-29T06:49:45.560Z,215
2018-04-29T06:50:46.118Z,205
2018-04-29T06:51:46.670Z,225
2018-04-29T06:52:47.219Z,250
2018-04-29T06:53:47.769Z,255
2018-04-29T06:54:48.320Z,255
2018-04-29T06:55:48.868Z,265
2018-04-29T06:56:49.421Z,270
2018-04-29T06:57:49.973Z,285
2018-04-29T06:58:50.530Z,295
2018-04-29T06:59:51.085Z,315
2018-04-29T07:00:51.649Z,345
2018-04-29T07:01:52.193Z,385
2018-04-29T07:02:52.743Z,425
2018-04-29T07:03:53.298Z,465
2018-04-29T07:04:53.855Z,505
2018-04-29T07:05:54.409Z,545
2018-04-29T07:06:54.965Z,570
2018-04-29T07:07:55.527Z,580
2018-04-29T07:08:56.076Z,630
2018-04-29T07:09:56.629Z,705
2018-04-29T07:10:57.186Z,840
2018-04-29T07:11:57.742Z,1045
2018-04-29T07:12:58.297Z,920
2018-04-29T07:13:58.851Z,625
2018-04-29T07:14:59.404Z,490
2018-04-29T07:15:59.954Z,420
2018-04-29T07:17:00.512Z,370
2018-04-29T07:18:01.065Z,325
2018-04-29T07:19:01.618Z,285
2018-04-29T07:20:02.254Z,270
2018-04-29T07:21:02.721Z,265
2018-04-29T07:22:03.275Z,250
2018-04-29T07:23:03.835Z,225
2018-04-29T07:24:04.382Z,220
2018-04-29T07:25:04.930Z,210
2018-04-29T07:26:05.517Z,190
2018-04-29T07:27:06.040Z,190
2018-04-29T07:28:06.595Z,195
2018-04-29T07:29:07.148Z,200
2018-04-29T07:30:07.703Z,220
2018-04-29T07:31:08.252Z,290
2018-04-29T07:32:08.808Z,330
2018-04-29T07:33:09.360Z,290
2018-04-29T07:34:09.945Z,270
2018-04-29T07:35:10.463Z,260
2018-04-29T07:36:11.016Z,255
2018-04-29T07:37:11.572Z,250
2018-04-29T07:38:12.126Z,205
2018-04-29T07:39:12.685Z,145
2018-04-29T07:40:13.303Z,160
2018-04-29T07:41:13.782Z,195
2018-04-29T07:42:14.335Z,240
2018-04-29T07:43:14.885Z,295
2018-04-29T07:44:15.443Z,280
2018-04-29T07:45:16.001Z,265
2018-04-29T07:46:16.550Z,250
2018-04-29T07:47:17.106Z,220
2018-04-29T07:48:17.648Z,200
2018-04-29T07:49:18.207Z,190
2018-04-29T07:50:18.757Z,190
2018-04-29T07:51:19.306Z,170
2018-04-29T07:52:19.957Z,135
2018-04-29T07:53:20.407Z,115
2018-04-29T07:54:20.960Z,115
2018-04-29T07:55:21.514Z,130
2018-04-29T07:56:22.069Z,135
2018-04-29T07:57:22.612Z,135
2018-04-29T07:58:23.175Z,145
2018-04-29T07:59:23.723Z,140
2018-04-29T08:00:24.275Z,150
2018-04-29T08:01:24.827Z,190
2018-04-29T08:02:25.380Z,235
2018-04-29T08:03:25.935Z,265
2018-04-29T08:04:26.484Z,280
2018-04-29T08:05:27.035Z,260
2018-04-29T08:06:27.584Z,210
2018-04-29T08:07:28.132Z,140
2018-04-29T08:08:28.689Z,130
2018-04-29T08:09:29.242Z,135
2018-04-29T08:10:29.795Z,120
2018-04-29T08:11:30.351Z,115
2018-04-29T08:12:30.904Z,135
2018-04-29T08:13:31.458Z,175
2018-04-29T08:14:32.019Z,220
2018-04-29T08:15:32.675Z,270
2018-04-29T08:16:33.122Z,340
2018-04-29T08:17:33.674Z,395
2018-04-29T08:18:34.228Z,470
2018-04-29T08:19:34.783Z,510
2018-04-29T08:20:35.341Z,485
2018-04-29T08:21:35.897Z,475
2018-04-29T08:22:36.456Z,515
2018-04-29T08:23:37.010Z,605
2018-04-29T08:24:37.563Z,655
2018-04-29T08:25:38.116Z,600
2018-04-29T08:26:38.669Z,575
2018-04-29T08:27:39.226Z,600
2018-04-29T08:28:39.784Z,675
2018-04-29T08:29:40.343Z,770
2018-04-29T08:30:40.899Z,1005
2018-04-29T08:31:41.452Z,750
2018-04-29T08:32:42.005Z,660
2018-04-29T08:33:42.563Z,735
2018-04-29T08:34:43.117Z,930
2018-04-29T08:35:43.669Z,975
2018-04-29T08:36:44.224Z,1500
2018-04-29T08:37:44.775Z,1530
2018-04-29T08:38:45.332Z,1115
2018-04-29T08:39:45.893Z,750
2018-04-29T08:40:46.438Z,710
2018-04-29T08:41:47.013Z,765
2018-04-29T08:42:47.561Z,890
2018-04-29T08:43:48.117Z,910
2018-04-29T08:44:48.676Z,955
2018-04-29T08:45:49.241Z,1015
2018-04-29T08:46:49.785Z,1305
2018-04-29T08:47:50.344Z,1520
2018-04-29T08:48:50.918Z,1560
2018-04-29T08:49:51.465Z,1685
2018-04-29T08:50:52.023Z,1670
2018-04-29T08:51:52.586Z,1840
2018-04-29T08:52:53.144Z,1280
2018-04-29T08:53:53.705Z,1505
2018-04-29T08:54:54.349Z,1300
2018-04-29T08:55:54.885Z,1315
2018-04-29T08:56:55.379Z,1360
2018-04-29T08:57:55.944Z,1135
2018-04-29T08:58:56.507Z,1210
2018-04-29T08:59:57.063Z,945
2018-04-29T09:00:57.617Z,870
2018-04-29T09:01:58.181Z,960
2018-04-29T09:02:58.744Z,895
2018-04-29T09:03:59.469Z,1020
2018-04-29T09:04:59.872Z,1305
2018-04-29T09:06:00.432Z,1570
2018-04-29T09:07:00.990Z,1510
2018-04-29T09:08:01.553Z,2020
2018-04-29T09:09:02.111Z,2120
2018-04-29T09:10:02.673Z,2075
2018-04-29T09:11:03.236Z,2345
2018-04-29T09:12:03.800Z,2365
2018-04-29T09:13:04.361Z,2330
2018-04-29T09:14:04.920Z,2315
2018-04-29T09:15:05.487Z,2325
2018-04-29T09:16:06.054Z,2350
2018-04-29T09:17:06.616Z,2310
2018-04-29T09:18:07.180Z,2290
2018-04-29T09:19:07.748Z,2290
2018-04-29T09:20:08.304Z,2335
2018-04-29T09:21:08.863Z,2315
2018-04-29T09:22:09.427Z,2355
2018-04-29T09:23:09.987Z,2375
2018-04-29T09:24:10.548Z,2470
2018-04-29T09:25:11.110Z,1715
2018-04-29T09:26:11.672Z,1040
2018-04-29T09:27:12.236Z,980
2018-04-29T09:28:12.802Z,900
2018-04-29T09:29:13.365Z,925
2018-04-29T09:30:13.933Z,2290
2018-04-29T09:31:14.497Z,1380
2018-04-29T09:32:15.062Z,2505
2018-04-29T09:33:15.628Z,1530
2018-04-29T09:34:16.194Z,1350
2018-04-29T09:35:16.763Z,1405
2018-04-29T09:36:17.332Z,1545
2018-04-29T09:37:17.946Z,835
2018-04-29T09:38:18.455Z,760
2018-04-29T09:39:19.015Z,675
2018-04-29T09:40:19.703Z,660
2018-04-29T09:41:20.129Z,700
2018-04-29T09:42:20.690Z,770
2018-04-29T09:43:21.254Z,830
2018-04-29T09:44:21.809Z,855
2018-04-29T09:45:22.363Z,840
2018-04-29T09:46:22.924Z,835
2018-04-29T09:47:23.481Z,845
2018-04-29T09:48:24.037Z,845
2018-04-29T09:49:24.599Z,930
2018-04-29T09:50:25.157Z,1090
2018-04-29T09:51:25.721Z,2140
2018-04-29T09:52:26.280Z,2255
2018-04-29T09:53:26.840Z,1845
2018-04-29T09:54:27.403Z,1825
2018-04-29T09:55:27.964Z,1985
2018-04-29T09:56:28.526Z,1550
2018-04-29T09:57:29.088Z,1425
2018-04-29T09:58:29.726Z,1200
2018-04-29T09:59:30.201Z,1140
2018-04-29T10:00:30.767Z,1140
2018-04-29T10:01:31.331Z,1220
2018-04-29T10:02:31.886Z,1320
2018-04-29T10:03:32.446Z,1515
2018-04-29T10:04:33.003Z,1270
2018-04-29T10:05:33.613Z,1130
2018-04-29T10:06:34.177Z,1130
2018-04-29T10:07:34.739Z,1150
2018-04-29T10:08:35.305Z,1155
2018-04-29T10:09:35.947Z,1110
2018-04-29T10:10:36.421Z,1080
2018-04-29T10:11:36.982Z,1030
2018-04-29T10:12:37.542Z,970
2018-04-29T10:13:38.102Z,925
2018-04-29T10:14:38.672Z,910
2018-04-29T10:15:39.221Z,945
2018-04-29T10:16:39.782Z,980
2018-04-29T10:17:40.340Z,1070
2018-04-29T10:18:40.903Z,1190
2018-04-29T10:19:41.466Z,1250
2018-04-29T10:20:42.020Z,1240
2018-04-29T10:21:42.577Z,1200
2018-04-29T10:22:43.139Z,1155
2018-04-29T10:23:43.698Z,1135
2018-04-29T10:24:44.287Z,1160
2018-04-29T10:25:44.816Z,975
2018-04-29T10:26:45.376Z,860
2018-04-29T10:27:45.938Z,780
2018-04-29T10:28:46.499Z,720
2018-04-29T10:29:47.058Z,685
2018-04-29T10:30:47.616Z,660
2018-04-29T10:31:48.180Z,690
2018-04-29T10:32:48.746Z,790
2018-04-29T10:33:49.293Z,1370
2018-04-29T10:34:49.857Z,1150
2018-04-29T10:35:50.439Z,1155
2018-04-29T10:36:50.971Z,1100
2018-04-29T10:37:51.526Z,1105
2018-04-29T10:38:52.091Z,1145
2018-04-29T10:39:52.648Z,1175
2018-04-29T10:40:53.209Z,1225
2018-04-29T10:41:53.771Z,1505
2018-04-29T10:42:54.331Z,1245
2018-04-29T10:43:54.893Z,1080
2018-04-29T10:44:55.446Z,940
2018-04-29T10:45:56.005Z,815
2018-04-29T10:46:56.556Z,695
2018-04-29T10:47:57.115Z,585
2018-04-29T10:48:57.676Z,515
2018-04-29T10:49:58.235Z,490
2018-04-29T10:50:58.795Z,475
2018-04-29T10:51:59.359Z,470
2018-04-29T10:52:59.919Z,515
2018-04-29T10:54:00.481Z,615
2018-04-29T10:55:01.036Z,745
2018-04-29T10:56:01.592Z,865
2018-04-29T10:57:02.152Z,910
2018-04-29T10:58:02.712Z,900
2018-04-29T10:59:03.271Z,875
2018-04-29T11:00:03.832Z,845
2018-04-29T11:01:04.388Z,805
2018-04-29T11:02:04.948Z,725
2018-04-29T11:03:05.503Z,665
2018-04-29T11:04:06.066Z,635
2018-04-29T11:05:06.630Z,600
2018-04-29T11:06:07.180Z,590
2018-04-29T11:07:07.740Z,595
2018-04-29T11:08:08.298Z,635
2018-04-29T11:09:08.859Z,745
2018-04-29T11:10:09.420Z,925
2018-04-29T11:11:09.982Z,1130
2018-04-29T11:12:10.539Z,1205
2018-04-29T11:13:11.100Z,1840
2018-04-29T11:14:11.663Z,2715
2018-04-29T11:15:12.220Z,1995
2018-04-29T11:16:12.787Z,3320
2018-04-29T11:17:13.346Z,1215
2018-04-29T11:18:13.911Z,1030
2018-04-29T11:19:14.472Z,935
2018-04-29T11:20:15.026Z,895
2018-04-29T11:21:15.588Z,920
2018-04-29T11:22:16.237Z,990
2018-04-29T11:23:16.705Z,1115
2018-04-29T11:24:17.264Z,1185
2018-04-29T11:25:17.820Z,1275
2018-04-29T11:26:18.385Z,1225
2018-04-29T11:27:18.953Z,1260
2018-04-29T11:28:19.511Z,1545
2018-04-29T11:29:20.077Z,2320
2018-04-29T11:30:20.634Z,1535
2018-04-29T11:31:21.196Z,1365
2018-04-29T11:32:21.763Z,2780
2018-04-29T11:33:22.324Z,1010
2018-04-29T11:34:22.888Z,950
2018-04-29T11:35:23.442Z,1510
2018-04-29T11:36:23.999Z,1250
2018-04-29T11:37:24.565Z,1370
2018-04-29T11:38:25.123Z,1620
2018-04-29T11:39:25.687Z,1405
2018-04-29T11:40:26.278Z,1360
2018-04-29T11:41:26.817Z,1415
2018-04-29T11:42:27.375Z,3615
2018-04-29T11:43:27.931Z,3535
2018-04-29T11:44:28.490Z,3460
2018-04-29T11:45:29.053Z,3280
2018-04-29T11:46:29.616Z,3520
2018-04-29T11:47:30.186Z,3290
2018-04-29T11:48:30.754Z,3375
2018-04-29T11:49:31.312Z,3295
2018-04-29T11:50:31.878Z,1890
2018-04-29T11:51:32.441Z,1925
2018-04-29T11:52:33.005Z,1560
2018-04-29T11:53:33.570Z,2755
2018-04-29T11:54:34.132Z,2690
2018-04-29T11:55:34.701Z,3440
2018-04-29T11:56:35.267Z,3435
2018-04-29T11:57:35.832Z,3320
2018-04-29T11:58:36.396Z,3295
2018-04-29T11:59:36.962Z,2915
2018-04-29T12:00:37.526Z,3085
2018-04-29T12:01:38.082Z,1375
2018-04-29T12:02:38.689Z,3150
2018-04-29T12:03:39.215Z,3405
2018-04-29T12:04:39.779Z,3290
2018-04-29T12:05:40.349Z,3340
2018-04-29T12:06:40.917Z,3165
2018-04-29T12:07:41.483Z,1135
2018-04-29T12:08:42.055Z,3120
2018-04-29T12:09:42.619Z,1380
2018-04-29T12:10:43.185Z,3170
2018-04-29T12:11:43.756Z,3335
2018-04-29T12:12:44.320Z,3475
2018-04-29T12:13:44.884Z,3375
2018-04-29T12:14:45.446Z,2450
2018-04-29T12:15:46.012Z,2445
2018-04-29T12:16:46.577Z,1975
2018-04-29T12:17:47.143Z,1550
2018-04-29T12:18:47.712Z,2090
2018-04-29T12:19:48.278Z,3250
2018-04-29T12:20:48.846Z,3315
2018-04-29T12:21:49.413Z,1060
2018-04-29T12:22:49.977Z,1275
2018-04-29T12:23:50.541Z,3320
2018-04-29T12:24:51.107Z,3025
2018-04-29T12:25:51.667Z,2935
2018-04-29T12:26:52.240Z,2445
2018-04-29T12:27:52.801Z,3020
2018-04-29T12:28:53.365Z,3065
2018-04-29T12:29:53.934Z,3040
2018-04-29T12:30:54.506Z,2985
2018-04-29T12:31:55.060Z,2875
2018-04-29T12:32:55.628Z,2880
2018-04-29T12:33:56.207Z,2855
2018-04-29T12:34:56.767Z,3010
2018-04-29T12:35:57.340Z,2910
2018-04-29T12:36:57.911Z,2835
2018-04-29T12:37:58.478Z,2940
2018-04-29T12:38:59.047Z,2945
2018-04-29T12:39:59.627Z,2925
2018-04-29T12:41:00.190Z,3030
2018-04-29T12:42:00.752Z,2635
2018-04-29T12:43:01.327Z,2785
2018-04-29T12:44:01.898Z,2595
2018-04-29T12:45:02.467Z,2995
2018-04-29T12:46:03.039Z,3065
2018-04-29T12:47:03.595Z,3105
2018-04-29T12:48:04.162Z,3050
2018-04-29T12:49:04.730Z,2980
2018-04-29T12:50:05.295Z,2900
2018-04-29T12:51:05.856Z,2925
2018-04-29T12:52:06.425Z,2965
2018-04-29T12:53:07.006Z,2955
2018-04-29T12:54:07.564Z,3080
2018-04-29T12:55:08.131Z,970
2018-04-29T12:56:08.695Z,3170
2018-04-29T12:57:09.263Z,3155
2018-04-29T12:58:09.828Z,1035
2018-04-29T12:59:10.392Z,1790
2018-04-29T13:00:11.060Z,3385
2018-04-29T13:01:11.522Z,3275
2018-04-29T13:02:12.093Z,3180
2018-04-29T13:03:12.658Z,2745
2018-04-29T13:04:13.230Z,850
2018-04-29T13:05:13.788Z,1255
2018-04-29T13:06:14.354Z,1115
2018-04-29T13:07:14.920Z,1025
2018-04-29T13:08:15.483Z,980
2018-04-29T13:09:16.051Z,1035
2018-04-29T13:10:16.629Z,980
2018-04-29T13:11:17.188Z,955
2018-04-29T13:12:17.756Z,995
2018-04-29T13:13:18.318Z,1080
2018-04-29T13:14:18.886Z,1095
2018-04-29T13:15:19.454Z,1015
2018-04-29T13:16:20.022Z,1080
2018-04-29T13:17:20.588Z,1140
2018-04-29T13:18:21.154Z,1105
2018-04-29T13:19:21.720Z,1245
2018-04-29T13:20:22.286Z,1430
2018-04-29T13:21:22.856Z,890
2018-04-29T13:22:23.417Z,750
2018-04-29T13:23:23.980Z,740
2018-04-29T13:24:24.542Z,600
2018-04-29T13:25:25.102Z,600
2018-04-29T13:26:25.663Z,590
2018-04-29T13:27:26.225Z,545
2018-04-29T13:28:26.778Z,500
2018-04-29T13:29:27.404Z,550
2018-04-29T13:30:27.912Z,545
2018-04-29T13:31:28.472Z,490
2018-04-29T13:32:29.030Z,435
2018-04-29T13:33:29.593Z,420
2018-04-29T13:34:30.150Z,375
2018-04-29T13:35:30.712Z,355
2018-04-29T13:36:31.268Z,375
2018-04-29T13:37:31.830Z,460
2018-04-29T13:38:32.396Z,395
2018-04-29T13:39:32.957Z,405
2018-04-29T13:40:33.520Z,510
2018-04-29T13:41:34.088Z,660
2018-04-29T13:42:34.644Z,615
2018-04-29T13:43:35.207Z,550
2018-04-29T13:44:35.767Z,510
2018-04-29T13:45:36.330Z,430
2018-04-29T13:46:36.893Z,390
2018-04-29T13:47:37.457Z,375
2018-04-29T13:48:38.026Z,360
2018-04-29T13:49:38.584Z,365
2018-04-29T13:50:39.146Z,420
2018-04-29T13:51:39.708Z,410
2018-04-29T13:52:40.264Z,385
2018-04-29T13:53:40.827Z,430
2018-04-29T13:54:41.395Z,500
2018-04-29T13:55:41.949Z,515
2018-04-29T13:56:42.511Z,485
2018-04-29T13:57:43.075Z,525
2018-04-29T13:58:43.677Z,685
2018-04-29T13:59:44.197Z,720
2018-04-29T14:00:44.759Z,630
2018-04-29T14:01:45.332Z,575
2018-04-29T14:02:45.883Z,535
2018-04-29T14:03:46.447Z,580
2018-04-29T14:04:47.047Z,660
2018-04-29T14:05:47.566Z,700
2018-04-29T14:06:48.128Z,745